createdAt,value
2019-02-24T00:01:42.461Z,37.70
2019-02-24T00:04:10.196Z,30.80
2019-02-24T00:06:37.880Z,30.73
2019-02-24T00:09:05.853Z,31.57
2019-02-24T00:11:33.632Z,31.47
2019-02-24T00:14:01.491Z,32.80
2019-02-24T00:16:29.358Z,33.83
2019-02-24T00:18:57.226Z,36.33
2019-02-24T00:21:24.952Z,35.80
2019-02-24T00:23:52.821Z,36.53
2019-02-24T00:26:20.642Z,34.87
2019-02-24T00:28:48.494Z,36.00
2019-02-24T00:31:16.123Z,32.30
2019-02-24T00:33:44.538Z,33.60
2019-02-24T00:36:13.338Z,33.90
2019-02-24T00:38:42.837Z,35.13
2019-02-24T00:41:10.527Z,39.53
2019-02-24T00:43:38.251Z,37.83
2019-02-24T00:46:06.133Z,32.63
2019-02-24T00:48:33.799Z,32.63
2019-02-24T00:51:01.500Z,32.27
2019-02-24T00:53:29.431Z,32.93
2019-02-24T00:55:57.299Z,34.20
2019-02-24T00:58:25.168Z,39.77
2019-02-24T01:00:53.037Z,38.90
2019-02-24T01:03:21.009Z,38.67
2019-02-24T01:05:48.639Z,36.70
2019-02-24T01:08:16.431Z,37.43
2019-02-24T01:10:44.309Z,38.40
2019-02-24T01:13:11.939Z,38.57
2019-02-24T01:15:39.733Z,39.47
2019-02-24T01:18:07.597Z,39.63
2019-02-24T01:20:35.365Z,39.23
2019-02-24T01:23:03.124Z,37.00
2019-02-24T01:25:30.767Z,38.37
2019-02-24T01:27:58.665Z,36.50
2019-02-24T01:30:26.433Z,39.13
2019-02-24T01:32:54.192Z,38.97
2019-02-24T01:35:21.839Z,41.70
2019-02-24T01:37:49.638Z,42.93
2019-02-24T01:40:17.505Z,42.43
2019-02-24T01:42:45.226Z,42.17
2019-02-24T01:45:13.023Z,41.37
2019-02-24T01:47:40.771Z,40.27
2019-02-24T01:50:08.968Z,38.93
2019-02-24T01:52:36.728Z,39.77
2019-02-24T01:55:04.494Z,39.60
2019-02-24T01:57:32.246Z,38.80
2019-02-24T01:59:59.920Z,37.80
2019-02-24T02:02:27.705Z,36.00
2019-02-24T02:04:55.563Z,33.20
2019-02-24T02:07:23.326Z,33.77
2019-02-24T02:09:50.975Z,33.43
2019-02-24T02:12:18.759Z,32.90
2019-02-24T02:14:46.525Z,32.97
2019-02-24T02:17:14.289Z,33.83
2019-02-24T02:19:41.935Z,35.07
2019-02-24T02:22:09.715Z,37.17
2019-02-24T02:24:37.583Z,35.37
2019-02-24T02:27:05.456Z,34.57
2019-02-24T02:29:33.324Z,34.27
2019-02-24T02:32:01.087Z,36.03
2019-02-24T02:34:28.870Z,35.70
2019-02-24T02:36:56.603Z,35.03
2019-02-24T02:39:24.594Z,37.27
2019-02-24T02:41:52.563Z,36.43
2019-02-24T02:44:20.429Z,36.93
2019-02-24T02:46:48.210Z,35.93
2019-02-24T02:49:15.961Z,36.27
2019-02-24T02:51:43.596Z,36.10
2019-02-24T02:54:11.598Z,36.43
2019-02-24T02:56:39.352Z,35.03
2019-02-24T02:59:07.128Z,33.73
2019-02-24T03:01:34.902Z,34.73
2019-02-24T03:04:02.764Z,34.53
2019-02-24T03:06:44.353Z,33.87
2019-02-24T03:09:12.097Z,33.57
2019-02-24T03:11:39.988Z,34.73
2019-02-24T03:14:07.633Z,35.53
2019-02-24T03:16:35.412Z,36.37
2019-02-24T03:19:03.184Z,34.20
2019-02-24T03:21:31.052Z,31.00
2019-02-24T03:23:58.815Z,33.73
2019-02-24T03:26:26.578Z,31.77
2019-02-24T03:29:03.646Z,32.20
2019-02-24T03:31:23.866Z,33.13
2019-02-24T03:33:51.725Z,39.23
2019-02-24T03:36:19.500Z,37.73
2019-02-24T03:38:47.257Z,35.10
2019-02-24T03:41:15.137Z,38.60
2019-02-24T03:43:42.994Z,39.37
2019-02-24T03:46:10.862Z,38.63
2019-02-24T03:48:38.734Z,39.63
2019-02-24T03:51:06.380Z,40.23
2019-02-24T03:53:34.103Z,37.53
2019-02-24T03:56:01.777Z,35.83
2019-02-24T03:58:29.601Z,36.30
2019-02-24T04:00:57.368Z,35.27
2019-02-24T04:03:25.327Z,36.33
2019-02-24T04:05:53.097Z,37.40
2019-02-24T04:08:20.852Z,36.73
2019-02-24T04:10:48.721Z,38.73
2019-02-24T04:13:16.592Z,39.03
2019-02-24T04:15:44.563Z,39.97
2019-02-24T04:18:12.442Z,38.53
2019-02-24T04:20:40.398Z,37.83
2019-02-24T04:23:08.270Z,38.07
2019-02-24T04:25:35.931Z,37.87
2019-02-24T04:28:03.714Z,39.63
2019-02-24T04:30:31.351Z,38.73
2019-02-24T04:32:59.124Z,40.27
2019-02-24T04:35:26.775Z,39.07
2019-02-24T04:37:54.661Z,38.80
2019-02-24T04:40:22.520Z,37.43
2019-02-24T04:42:50.292Z,38.20
2019-02-24T04:45:18.073Z,37.87
2019-02-24T04:47:45.930Z,38.23
2019-02-24T04:50:13.807Z,38.83
2019-02-24T04:52:41.619Z,38.63
2019-02-24T04:55:09.429Z,39.57
2019-02-24T04:57:37.200Z,40.97
2019-02-24T05:00:06.896Z,39.23
2019-02-24T05:02:34.622Z,40.33
2019-02-24T05:05:02.319Z,37.60
2019-02-24T05:07:30.100Z,37.83
2019-02-24T05:09:57.873Z,40.53
2019-02-24T05:12:25.504Z,38.87
2019-02-24T05:14:53.398Z,38.57
2019-02-24T05:17:21.169Z,37.27
2019-02-24T05:19:48.840Z,36.87
2019-02-24T05:22:16.802Z,37.53
2019-02-24T05:24:44.573Z,36.13
2019-02-24T05:27:12.293Z,34.30
2019-02-24T05:29:45.956Z,35.20
2019-02-24T05:32:09.505Z,34.10
2019-02-24T05:34:37.779Z,33.03
2019-02-24T05:37:05.543Z,33.60
2019-02-24T05:39:33.377Z,32.43
2019-02-24T05:42:01.051Z,30.57
2019-02-24T05:44:28.846Z,30.90
2019-02-24T05:46:56.714Z,30.93
2019-02-24T05:49:24.582Z,35.00
2019-02-24T05:51:52.553Z,31.67
2019-02-24T05:54:20.422Z,33.60
2019-02-24T05:56:48.087Z,34.07
2019-02-24T05:59:15.865Z,35.77
2019-02-24T06:01:43.608Z,35.63
2019-02-24T06:04:11.497Z,34.07
2019-02-24T06:06:39.123Z,35.10
2019-02-24T06:09:08.047Z,35.57
2019-02-24T06:11:35.675Z,37.50
2019-02-24T06:14:03.347Z,37.50
2019-02-24T06:16:31.125Z,39.33
2019-02-24T06:18:58.790Z,37.87
2019-02-24T06:21:26.666Z,37.37
2019-02-24T06:23:54.428Z,36.80
2019-02-24T06:26:22.295Z,37.30
2019-02-24T06:28:50.077Z,39.13
2019-02-24T06:31:17.845Z,40.23
2019-02-24T06:33:45.700Z,41.93
2019-02-24T06:36:13.481Z,41.83
2019-02-24T06:38:41.334Z,38.03
2019-02-24T06:41:09.199Z,37.97
2019-02-24T06:43:37.070Z,38.40
2019-02-24T06:46:05.654Z,34.75
2019-02-24T06:48:33.426Z,33.37
2019-02-24T06:51:02.931Z,34.13
2019-02-24T06:53:30.675Z,34.27
2019-02-24T06:55:58.467Z,33.93
2019-02-24T06:58:26.308Z,38.53
2019-02-24T07:00:53.955Z,40.00
2019-02-24T07:03:21.636Z,42.00
2019-02-24T07:05:49.524Z,46.90
2019-02-24T07:08:17.387Z,45.03
2019-02-24T07:10:45.115Z,42.50
2019-02-24T07:13:12.925Z,40.87
2019-02-24T07:15:40.698Z,41.13
2019-02-24T07:18:08.553Z,40.80
2019-02-24T07:20:36.215Z,40.70
2019-02-24T07:23:03.966Z,39.40
2019-02-24T07:25:31.762Z,39.80
2019-02-24T07:27:59.515Z,40.07
2019-02-24T07:30:27.593Z,40.33
2019-02-24T07:32:55.338Z,39.37
2019-02-24T07:35:23.137Z,43.43
2019-02-24T07:37:50.998Z,40.30
2019-02-24T07:40:18.862Z,38.53
2019-02-24T07:42:46.735Z,36.30
2019-02-24T07:45:14.491Z,38.77
2019-02-24T07:47:42.261Z,39.77
2019-02-24T07:50:11.148Z,41.10
2019-02-24T07:52:38.879Z,34.77
2019-02-24T07:55:06.890Z,35.30
2019-02-24T07:57:34.656Z,34.33
2019-02-24T08:00:02.417Z,37.03
2019-02-24T08:02:30.063Z,39.87
2019-02-24T08:04:57.831Z,34.63
2019-02-24T08:07:25.498Z,34.07
2019-02-24T08:09:53.281Z,31.10
2019-02-24T08:12:21.054Z,30.70
2019-02-24T08:14:48.915Z,29.73
2019-02-24T08:17:16.783Z,34.83
2019-02-24T08:19:44.532Z,32.33
2019-02-24T08:22:12.325Z,28.17
2019-02-24T08:24:40.086Z,29.50
2019-02-24T08:27:07.847Z,30.97
2019-02-24T08:29:35.715Z,31.13
2019-02-24T08:32:03.475Z,28.70
2019-02-24T08:34:31.447Z,27.17
2019-02-24T08:36:59.315Z,29.47
2019-02-24T08:39:27.183Z,26.67
2019-02-24T08:41:55.058Z,27.20
2019-02-24T08:44:22.840Z,26.23
2019-02-24T08:46:50.648Z,26.00
2019-02-24T08:49:18.477Z,26.47
2019-02-24T08:51:46.428Z,27.13
2019-02-24T08:54:14.073Z,27.97
2019-02-24T08:56:41.850Z,27.57
2019-02-24T08:59:09.537Z,26.93
2019-02-24T09:01:37.299Z,27.07
2019-02-24T09:04:05.570Z,25.90
2019-02-24T09:06:33.337Z,30.53
2019-02-24T09:09:01.085Z,28.23
2019-02-24T09:11:28.848Z,92.77
2019-02-24T09:13:56.520Z,39.00
2019-02-24T09:16:24.430Z,31.40
2019-02-24T09:18:52.159Z,81.37
2019-02-24T09:21:20.316Z,41.37
2019-02-24T09:23:48.208Z,42.93
2019-02-24T09:26:15.947Z,38.23
2019-02-24T09:28:43.748Z,104.23
2019-02-24T09:31:11.488Z,48.73
2019-02-24T09:33:39.471Z,53.73
2019-02-24T09:36:07.335Z,47.30
2019-02-24T09:38:35.095Z,27.00
2019-02-24T09:41:02.749Z,27.47
2019-02-24T09:43:30.459Z,25.50
2019-02-24T09:45:58.486Z,26.87
2019-02-24T09:48:26.147Z,25.30
2019-02-24T09:50:54.031Z,25.93
2019-02-24T09:53:21.698Z,24.30
2019-02-24T09:55:49.457Z,26.23
2019-02-24T09:58:17.242Z,33.00
2019-02-24T10:00:44.988Z,35.10
2019-02-24T10:03:12.867Z,33.27
2019-02-24T10:05:40.632Z,32.47
2019-02-24T10:08:08.497Z,27.47
2019-02-24T10:10:36.381Z,19.33
2019-02-24T10:13:04.241Z,19.33
2019-02-24T10:15:31.909Z,15.60
2019-02-24T10:17:59.682Z,16.03
2019-02-24T10:20:27.537Z,16.63
2019-02-24T10:22:55.506Z,13.90
2019-02-24T10:25:23.244Z,12.07
2019-02-24T10:27:51.002Z,12.20
2019-02-24T10:30:18.908Z,13.60
2019-02-24T10:32:46.652Z,12.80
2019-02-24T10:35:14.748Z,12.13
2019-02-24T10:37:42.608Z,10.23
2019-02-24T10:40:12.485Z,12.57
2019-02-24T10:42:40.702Z,12.27
2019-02-24T10:45:10.211Z,13.60
2019-02-24T10:47:37.972Z,14.10
2019-02-24T10:50:07.154Z,23.03
2019-02-24T10:52:34.940Z,27.67
2019-02-24T10:55:02.713Z,16.63
2019-02-24T10:57:30.355Z,17.53
2019-02-24T10:59:58.120Z,17.13
2019-02-24T11:02:26.009Z,16.77
2019-02-24T11:04:53.870Z,16.60
2019-02-24T11:07:21.632Z,26.90
2019-02-24T11:09:49.301Z,14.03
2019-02-24T11:12:17.169Z,12.60
2019-02-24T11:14:44.955Z,13.00
2019-02-24T11:17:12.698Z,15.00
2019-02-24T11:19:40.460Z,16.77
2019-02-24T11:22:08.338Z,16.00
2019-02-24T11:24:36.110Z,15.60
2019-02-24T11:27:03.865Z,14.47
2019-02-24T11:29:31.633Z,15.23
2019-02-24T11:31:59.387Z,14.83
2019-02-24T11:34:27.272Z,13.83
2019-02-24T11:36:55.446Z,21.00
2019-02-24T11:39:23.314Z,15.70
2019-02-24T11:41:51.182Z,17.53
2019-02-24T11:44:18.942Z,19.63
2019-02-24T11:46:46.646Z,15.90
2019-02-24T11:49:14.493Z,16.13
2019-02-24T11:51:42.185Z,21.73
2019-02-24T11:54:09.991Z,19.97
2019-02-24T11:56:37.675Z,18.93
2019-02-24T11:59:05.578Z,15.57
2019-02-24T12:01:33.515Z,17.63
2019-02-24T12:04:01.480Z,14.07
2019-02-24T12:06:29.251Z,15.60
2019-02-24T12:09:04.887Z,15.70
2019-02-24T12:11:26.428Z,16.90
2019-02-24T12:13:54.181Z,13.47
2019-02-24T12:16:21.865Z,13.23
2019-02-24T12:18:49.719Z,13.73
2019-02-24T12:21:17.484Z,12.53
2019-02-24T12:23:45.258Z,12.37
2019-02-24T12:26:12.951Z,16.27
2019-02-24T12:28:40.679Z,14.20
2019-02-24T12:31:08.312Z,13.30
2019-02-24T12:33:36.933Z,11.77
2019-02-24T12:36:05.300Z,12.65
2019-02-24T12:38:33.073Z,27.20
2019-02-24T12:41:00.849Z,13.17
2019-02-24T12:43:28.811Z,11.53
2019-02-24T12:45:56.575Z,13.60
2019-02-24T12:48:24.439Z,18.97
2019-02-24T12:50:53.342Z,14.97
2019-02-24T12:53:21.507Z,16.87
2019-02-24T12:55:49.268Z,33.40
2019-02-24T12:58:17.039Z,37.10
2019-02-24T13:00:44.687Z,15.80
2019-02-24T13:03:12.468Z,15.97
2019-02-24T13:05:40.232Z,20.73
2019-02-24T13:08:07.926Z,40.40
2019-02-24T13:10:35.647Z,16.30
2019-02-24T13:13:03.537Z,16.50
2019-02-24T13:15:31.410Z,15.20
2019-02-24T13:17:59.167Z,18.37
2019-02-24T13:20:27.041Z,16.40
2019-02-24T13:22:54.804Z,16.93
2019-02-24T13:25:22.668Z,19.30
2019-02-24T13:27:50.542Z,15.63
2019-02-24T13:30:18.516Z,14.67
2019-02-24T13:32:46.259Z,12.77
2019-02-24T13:35:14.040Z,14.77
2019-02-24T13:37:41.738Z,20.20
2019-02-24T13:40:10.391Z,16.37
2019-02-24T13:42:38.155Z,21.17
2019-02-24T13:45:07.320Z,16.70
2019-02-24T13:47:35.056Z,21.03
2019-02-24T13:50:02.799Z,22.00
2019-02-24T13:52:30.661Z,19.93
2019-02-24T13:54:58.422Z,18.07
2019-02-24T13:57:26.124Z,18.43
2019-02-24T13:59:53.844Z,21.40
2019-02-24T14:02:24.137Z,20.90
2019-02-24T14:04:51.003Z,18.53
2019-02-24T14:07:18.892Z,25.37
2019-02-24T14:09:46.665Z,17.67
2019-02-24T14:12:14.420Z,19.57
2019-02-24T14:14:48.873Z,22.53
2019-02-24T14:17:11.549Z,16.90
2019-02-24T14:19:39.265Z,16.67
2019-02-24T14:22:07.037Z,17.57
2019-02-24T14:24:34.780Z,17.23
2019-02-24T14:27:02.551Z,17.30
2019-02-24T14:29:30.316Z,21.67
2019-02-24T14:31:58.093Z,17.00
2019-02-24T14:34:25.723Z,18.27
2019-02-24T14:36:53.625Z,18.77
2019-02-24T14:39:22.216Z,18.23
2019-02-24T14:41:50.174Z,19.93
2019-02-24T14:44:17.936Z,21.63
2019-02-24T14:46:45.810Z,18.37
2019-02-24T14:49:13.677Z,16.93
2019-02-24T14:51:41.355Z,18.87
2019-02-24T14:54:09.003Z,17.47
2019-02-24T14:56:36.751Z,18.67
2019-02-24T14:59:05.618Z,17.63
2019-02-24T15:01:33.425Z,18.87
2019-02-24T15:04:01.195Z,22.07
2019-02-24T15:06:28.882Z,22.90
2019-02-24T15:08:56.587Z,19.27
2019-02-24T15:11:24.276Z,18.40
2019-02-24T15:13:52.061Z,26.70
2019-02-24T15:16:19.799Z,24.43
2019-02-24T15:18:47.687Z,24.07
2019-02-24T15:21:15.347Z,22.67
2019-02-24T15:23:43.022Z,22.77
2019-02-24T15:26:10.768Z,23.40
2019-02-24T15:28:38.646Z,21.77
2019-02-24T15:31:06.513Z,37.23
2019-02-24T15:33:34.384Z,18.90
2019-02-24T15:36:02.131Z,28.63
2019-02-24T15:38:30.020Z,25.90
2019-02-24T15:40:57.904Z,25.27
2019-02-24T15:43:25.648Z,22.57
2019-02-24T15:45:53.516Z,24.50
2019-02-24T15:48:21.170Z,23.73
2019-02-24T15:50:50.780Z,24.03
2019-02-24T15:53:18.557Z,18.30
2019-02-24T15:55:46.279Z,17.07
2019-02-24T15:58:14.090Z,20.00
2019-02-24T16:00:41.852Z,19.37
2019-02-24T16:03:09.620Z,23.03
2019-02-24T16:05:42.293Z,19.73
2019-02-24T16:08:10.182Z,33.73
2019-02-24T16:10:38.083Z,40.27
2019-02-24T16:13:05.908Z,43.23
2019-02-24T16:15:33.777Z,38.33
2019-02-24T16:18:01.532Z,33.63
2019-02-24T16:20:30.569Z,33.13
2019-02-24T16:22:58.412Z,28.63
2019-02-24T16:25:26.081Z,22.30
2019-02-24T16:27:54.564Z,32.07
2019-02-24T16:30:24.283Z,25.67
2019-02-24T16:32:52.064Z,23.37
2019-02-24T16:35:19.889Z,21.97
2019-02-24T16:37:47.684Z,35.70
2019-02-24T16:40:16.717Z,29.13
2019-02-24T16:42:46.062Z,35.87
2019-02-24T16:45:15.360Z,40.40
2019-02-24T16:47:43.198Z,45.70
2019-02-24T16:50:12.530Z,45.10
2019-02-24T16:52:40.312Z,23.63
2019-02-24T16:55:09.309Z,23.20
2019-02-24T16:57:37.163Z,26.73
2019-02-24T17:00:10.677Z,26.62
2019-02-24T17:02:38.427Z,40.57
2019-02-24T17:05:06.823Z,38.60
2019-02-24T17:07:34.781Z,33.07
2019-02-24T17:10:02.640Z,41.77
2019-02-24T17:12:30.515Z,46.33
2019-02-24T17:14:58.380Z,29.03
2019-02-24T17:17:26.146Z,30.10
2019-02-24T17:19:53.813Z,52.27
2019-02-24T17:22:21.564Z,54.17
2019-02-24T17:24:49.227Z,32.13
2019-02-24T17:27:17.011Z,27.50
2019-02-24T17:29:44.860Z,29.13
2019-02-24T17:32:12.626Z,34.37
2019-02-24T17:34:40.287Z,27.87
2019-02-24T17:37:07.956Z,54.47
2019-02-24T17:39:35.736Z,124.07
2019-02-24T17:42:03.603Z,70.43
2019-02-24T17:44:31.269Z,27.20
2019-02-24T17:46:59.028Z,24.00
2019-02-24T17:49:26.899Z,39.03
2019-02-24T17:51:55.284Z,36.47
2019-02-24T17:54:23.069Z,54.90
2019-02-24T17:56:50.777Z,44.77
2019-02-24T17:59:18.460Z,45.43
2019-02-24T18:01:46.449Z,46.10
2019-02-24T18:04:14.318Z,40.73
2019-02-24T18:06:41.957Z,37.87
2019-02-24T18:09:09.746Z,159.77
2019-02-24T18:11:37.527Z,126.30
2019-02-24T18:14:05.716Z,80.65
2019-02-24T18:16:33.448Z,68.87
2019-02-24T18:19:01.229Z,80.00
2019-02-24T18:21:28.868Z,49.33
2019-02-24T18:23:56.576Z,47.50
2019-02-24T18:26:24.517Z,42.70
2019-02-24T18:28:52.802Z,52.17
2019-02-24T18:31:20.562Z,112.27
2019-02-24T18:33:48.684Z,98.87
2019-02-24T18:36:16.383Z,115.30
2019-02-24T18:38:44.167Z,93.43
2019-02-24T18:41:12.851Z,100.23
2019-02-24T18:43:40.632Z,67.77
2019-02-24T18:46:08.344Z,53.93
2019-02-24T18:48:36.456Z,103.87
2019-02-24T18:51:04.434Z,72.13
2019-02-24T18:53:32.185Z,44.00
2019-02-24T18:55:59.956Z,36.43
2019-02-24T18:58:27.709Z,35.77
2019-02-24T19:00:55.488Z,46.70
2019-02-24T19:03:23.348Z,33.83
2019-02-24T19:05:51.137Z,33.40
2019-02-24T19:08:18.913Z,32.40
2019-02-24T19:10:46.648Z,33.60
2019-02-24T19:13:14.526Z,32.13
2019-02-24T19:15:42.390Z,34.10
2019-02-24T19:18:10.085Z,30.43
2019-02-24T19:20:37.916Z,44.60
2019-02-24T19:23:05.999Z,41.23
2019-02-24T19:25:33.749Z,38.93
2019-02-24T19:28:01.533Z,37.97
2019-02-24T19:30:29.243Z,43.07
2019-02-24T19:32:56.884Z,73.07
2019-02-24T19:35:24.613Z,72.17
2019-02-24T19:37:52.390Z,57.40
2019-02-24T19:40:20.549Z,40.80
2019-02-24T19:42:48.434Z,57.97
2019-02-24T19:45:20.279Z,43.67
2019-02-24T19:47:48.265Z,32.90
2019-02-24T19:50:16.863Z,27.37
2019-02-24T19:52:44.524Z,27.97
2019-02-24T19:55:13.300Z,29.93
2019-02-24T19:57:40.963Z,30.07
2019-02-24T20:00:10.270Z,29.37
2019-02-24T20:02:38.123Z,28.43
2019-02-24T20:05:06.476Z,30.63
2019-02-24T20:07:34.265Z,32.00
2019-02-24T20:10:02.046Z,48.23
2019-02-24T20:12:29.709Z,55.47
2019-02-24T20:14:57.459Z,35.97
2019-02-24T20:17:25.344Z,36.03
2019-02-24T20:19:53.111Z,36.87
2019-02-24T20:22:20.797Z,37.53
2019-02-24T20:24:48.645Z,38.00
2019-02-24T20:27:16.391Z,37.57
2019-02-24T20:29:44.063Z,35.87
2019-02-24T20:32:11.844Z,39.17
2019-02-24T20:34:39.587Z,41.67
2019-02-24T20:37:07.388Z,54.37
2019-02-24T20:39:35.343Z,47.07
2019-02-24T20:42:03.213Z,42.90
2019-02-24T20:44:30.844Z,35.13
2019-02-24T20:46:58.641Z,34.43
2019-02-24T20:49:26.421Z,37.30
2019-02-24T20:51:54.172Z,33.23
2019-02-24T20:54:21.940Z,31.83
2019-02-24T20:56:49.683Z,33.17
2019-02-24T20:59:17.670Z,41.33
2019-02-24T21:01:45.436Z,43.40
2019-02-24T21:04:13.201Z,43.37
2019-02-24T21:06:41.075Z,38.90
2019-02-24T21:09:09.041Z,40.03
2019-02-24T21:11:36.916Z,52.07
2019-02-24T21:14:05.466Z,45.48
2019-02-24T21:16:33.360Z,77.47
2019-02-24T21:19:01.012Z,58.60
2019-02-24T21:21:28.802Z,56.50
2019-02-24T21:23:56.544Z,34.87
2019-02-24T21:26:24.632Z,39.90
2019-02-24T21:28:52.407Z,29.87
2019-02-24T21:31:20.167Z,27.57
2019-02-24T21:33:47.813Z,27.93
2019-02-24T21:36:18.304Z,27.50
2019-02-24T21:38:46.515Z,35.47
2019-02-24T21:41:14.508Z,46.37
2019-02-24T21:43:42.376Z,37.53
2019-02-24T21:46:10.141Z,36.97
2019-02-24T21:48:37.904Z,34.80
2019-02-24T21:51:05.772Z,32.50
2019-02-24T21:53:33.639Z,30.23
2019-02-24T21:56:01.395Z,28.67
2019-02-24T21:58:29.175Z,28.53
2019-02-24T22:00:57.041Z,23.67
2019-02-24T22:03:24.820Z,22.73
2019-02-24T22:05:52.678Z,27.57
2019-02-24T22:08:20.397Z,37.10
2019-02-24T22:10:48.206Z,29.03
2019-02-24T22:13:16.079Z,31.37
2019-02-24T22:15:43.755Z,29.43
2019-02-24T22:18:11.507Z,30.63
2019-02-24T22:20:39.376Z,30.87
2019-02-24T22:23:07.256Z,30.40
2019-02-24T22:25:34.968Z,30.90
2019-02-24T22:28:04.415Z,31.60
2019-02-24T22:30:32.589Z,32.27
2019-02-24T22:33:00.560Z,33.70
2019-02-24T22:35:28.316Z,35.67
2019-02-24T22:37:57.935Z,31.87
2019-02-24T22:40:25.579Z,32.90
2019-02-24T22:42:53.364Z,35.90
2019-02-24T22:45:29.219Z,34.97
2019-02-24T22:47:57.394Z,35.30
2019-02-24T22:50:25.172Z,32.93
2019-02-24T22:52:53.898Z,30.50
2019-02-24T22:55:21.718Z,29.17
2019-02-24T22:57:49.488Z,29.33
2019-02-24T23:00:47.759Z,25.63
2019-02-24T23:03:15.542Z,23.80
2019-02-24T23:05:43.279Z,23.60
2019-02-24T23:08:10.960Z,24.97
2019-02-24T23:10:38.653Z,24.97
2019-02-24T23:13:06.287Z,24.40
2019-02-24T23:15:34.169Z,25.00
2019-02-24T23:18:01.921Z,26.73
2019-02-24T23:20:29.684Z,26.27
2019-02-24T23:22:57.569Z,27.57
2019-02-24T23:25:25.303Z,27.83
2019-02-24T23:27:52.971Z,25.33
2019-02-24T23:30:20.731Z,24.87
2019-02-24T23:32:48.416Z,23.23
2019-02-24T23:35:16.179Z,26.00
2019-02-24T23:37:43.950Z,25.30
2019-02-24T23:40:11.815Z,23.80
2019-02-24T23:42:39.586Z,25.13
2019-02-24T23:45:10.467Z,26.37
2019-02-24T23:47:37.755Z,24.37
2019-02-24T23:50:06.769Z,25.70
2019-02-24T23:52:34.585Z,24.30
2019-02-24T23:55:02.400Z,25.27
2019-02-24T23:57:30.165Z,25.47
2019-02-24T23:59:57.916Z,24.93
